Time;durP1;ratioP1;P1;durP2;ratioP2;P2;SDS_P1;SDS_P2;PMS_P1;PMS_P2;Temp;Humidity;BMP_temperature;BMP_pressure;BME280_temperature;BME280_humidity;BME280_pressure;Samples;Min_cycle;Max_cycle;Signal;HPM_P1;HPM_P2
2023/08/31 00:00:53;;;;;;;6.93;3.58;;;;;;;1.71;100.00;98155.56;4973504;28;20480;-65
2023/08/31 00:03:19;;;;;;;8.43;3.00;;;;;;;0.88;100.00;98023.69;4973170;28;20364;-65
2023/08/31 00:05:46;;;;;;;5.53;3.05;;;;;;;0.95;100.00;98033.44;4973970;28;20139;-65
2023/08/31 00:08:13;;;;;;;8.02;3.72;;;;;;;-6.50;100.00;96874.38;4973376;28;20043;-65
2023/08/31 00:10:40;;;;;;;3.92;3.05;;;;;;;-9.40;100.00;96404.00;4973742;28;20101;-65
2023/08/31 00:13:07;;;;;;;5.63;2.80;;;;;;;-8.73;100.00;96513.78;4973356;28;20069;-66
2023/08/31 00:15:35;;;;;;;4.85;3.30;;;;;;;-8.34;100.00;96579.41;4973004;28;20051;-66
2023/08/31 00:18:05;;;;;;;4.03;2.97;;;;;;;-9.08;100.00;96463.34;4972485;28;20397;-65
2023/08/31 00:20:35;;;;;;;6.47;3.13;;;;;;;-8.84;100.00;96487.03;4972823;28;20050;-65
2023/08/31 00:23:02;;;;;;;4.53;3.10;;;;;;;-6.02;100.00;96918.38;4972883;28;20094;-65
2023/08/31 00:25:28;;;;;;;6.60;3.45;;;;;;;-5.06;100.00;97079.66;4973063;28;20050;-65
2023/08/31 00:27:56;;;;;;;4.85;2.78;;;;;;;-6.41;100.00;96870.91;4973027;28;20081;-65
2023/08/31 00:30:29;;;;;;;4.15;2.42;;;;;;;-9.37;100.00;96414.09;4972903;28;20133;-65
2023/08/31 00:32:59;;;;;;;5.90;2.70;;;;;;;-7.08;100.00;96760.06;4973014;28;20047;-65
2023/08/31 00:35:29;;;;;;;3.80;3.08;;;;;;;-4.57;100.00;97148.03;4955365;28;20143;-66
2023/08/31 00:38:00;;;;;;;5.53;2.75;;;;;;;-2.29;100.00;97512.84;4972814;28;20093;-65
2023/08/31 00:40:30;;;;;;;3.65;2.80;;;;;;;-2.28;100.00;97517.09;4972642;28;20496;-65
2023/08/31 00:42:57;;;;;;;6.82;2.58;;;;;;;-2.53;100.00;97478.59;4972670;28;20051;-65
2023/08/31 00:45:24;;;;;;;3.78;3.20;;;;;;;-2.90;100.00;97417.56;4972462;28;20047;-65
2023/08/31 00:47:50;;;;;;;5.97;3.55;;;;;;;-6.68;100.00;96820.44;4972879;28;20210;-65
2023/08/31 00:50:17;;;;;;;7.65;3.30;;;;;;;-11.44;100.00;96067.69;4972275;28;20046;-65
2023/08/31 00:52:47;;;;;;;6.70;2.92;;;;;;;-8.41;100.00;96536.75;4972948;28;20550;-65
2023/08/31 00:55:17;;;;;;;8.25;3.67;;;;;;;-9.59;100.00;96359.00;4972283;28;20180;-66
2023/08/31 00:57:44;;;;;;;5.43;3.10;;;;;;;-12.44;100.00;95910.41;4972615;28;20050;-65
2023/08/31 01:00:13;;;;;;;6.28;3.10;;;;;;;-10.14;100.00;96282.91;4972512;28;20098;-65
2023/08/31 01:02:51;;;;;;;5.75;2.83;;;;;;;-14.06;100.00;95670.13;4971980;28;20161;-65
2023/08/31 01:09:22;;;;;;;4.35;2.88;;;;;;;-31.90;100.00;92873.94;4970933;28;20418;-65
2023/08/31 01:12:11;;;;;;;5.90;2.90;;;;;;;-43.87;100.00;91021.06;4971586;28;20046;-66
2023/08/31 01:15:07;;;;;;;3.83;3.05;;;;;;;-132.61;100.00;78149.53;4971276;28;20042;-65
2023/08/31 01:17:42;;;;;;;4.22;3.00;;;;;;;-149.70;100.00;75865.28;4970287;28;20054;-65
2023/08/31 01:20:11;;;;;;;3.90;2.83;;;;;;;-149.70;100.00;75881.56;4970474;28;20434;-65
2023/08/31 01:22:40;;;;;;;6.63;3.20;;;;;;;-149.70;100.00;75869.38;4971171;28;20042;-66
2023/08/31 01:25:09;;;;;;;4.07;3.38;;;;;;;-149.70;100.00;75873.44;4971425;28;20046;-65
2023/08/31 01:27:37;;;;;;;3.63;3.10;;;;;;;-149.70;100.00;75861.22;4970846;28;20482;-65
2023/08/31 01:30:05;;;;;;;6.00;3.47;;;;;;;-149.70;100.00;75863.25;4970659;28;20050;-65
2023/08/31 01:32:32;;;;;;;4.78;3.90;;;;;;;-149.70;100.00;75871.41;4971358;28;20411;-65
2023/08/31 01:35:05;;;;;;;4.60;3.28;;;;;;;-149.70;100.00;75879.53;4970392;28;20074;-65
2023/08/31 01:37:50;;;;;;;6.05;3.13;;;;;;;-149.70;100.00;75873.44;4970969;28;20050;-65
2023/08/31 01:40:27;;;;;;;6.68;3.00;;;;;;;-149.70;100.00;75885.63;4971443;28;20054;-65
2023/08/31 01:42:55;;;;;;;3.63;2.55;;;;;;;-149.70;100.00;75881.56;4971499;28;20038;-66
2023/08/31 01:45:23;;;;;;;3.80;2.42;;;;;;;-149.70;100.00;75889.69;4971273;28;20042;-66
2023/08/31 01:47:50;;;;;;;4.93;2.50;;;;;;;-149.70;100.00;75897.81;4970217;28;20054;-65
2023/08/31 01:50:17;;;;;;;2.72;2.17;;;;;;;-149.70;100.00;75897.81;4970072;28;20133;-65
2023/08/31 01:52:43;;;;;;;3.35;2.65;;;;;;;-149.70;100.00;75901.88;4970382;28;20055;-65
2023/08/31 01:55:13;;;;;;;5.05;2.63;;;;;;;-149.70;100.00;75895.78;4971216;28;20137;-65
2023/08/31 01:57:40;;;;;;;3.25;2.10;;;;;;;-149.70;100.00;75887.66;4970223;28;20113;-64
2023/08/31 02:00:08;;;;;;;3.13;2.40;;;;;;;-149.70;100.00;75901.88;4970947;28;20097;-64
2023/08/31 02:02:35;;;;;;;2.80;2.55;;;;;;;-149.70;100.00;75905.97;4970209;28;20105;-65
2023/08/31 02:05:04;;;;;;;2.90;2.38;;;;;;;-149.70;100.00;75930.34;4970546;28;20043;-64
2023/08/31 02:07:30;;;;;;;2.40;2.20;;;;;;;-149.70;100.00;75956.78;4970542;28;20050;-64
2023/08/31 02:09:57;;;;;;;2.80;2.22;;;;;;;-149.70;100.00;75954.75;4970178;28;20043;-64
2023/08/31 02:12:23;;;;;;;3.35;2.28;;;;;;;-149.70;100.00;75962.88;4971460;28;20496;-65
2023/08/31 02:14:50;;;;;;;3.78;2.92;;;;;;;-149.70;100.00;75966.94;4970508;28;20050;-65
2023/08/31 02:17:17;;;;;;;4.72;2.80;;;;;;;-149.70;100.00;75956.78;4953687;28;20109;-65
2023/08/31 02:19:45;;;;;;;6.55;2.65;;;;;;;-149.70;100.00;75971.00;4971029;28;20081;-65
2023/08/31 02:22:11;;;;;;;3.08;2.20;;;;;;;-149.70;100.00;75979.16;4971092;28;20043;-65
2023/08/31 02:24:38;;;;;;;3.25;2.17;;;;;;;-149.70;100.00;75981.19;4970936;28;20047;-65
2023/08/31 02:27:04;;;;;;;2.60;2.03;;;;;;;-149.70;100.00;75991.34;4970221;28;20102;-65
2023/08/31 02:29:31;;;;;;;3.78;2.30;;;;;;;-149.70;100.00;75975.09;4970270;28;20070;-64
2023/08/31 02:31:57;;;;;;;5.43;1.83;;;;;;;-149.70;100.00;75993.38;4969706;28;20553;-64
2023/08/31 02:34:25;;;;;;;2.53;2.00;;;;;;;-149.70;100.00;76003.53;4971044;28;20558;-65
2023/08/31 02:36:51;;;;;;;5.10;2.10;;;;;;;-149.70;100.00;75995.41;4970947;28;20058;-65
2023/08/31 02:39:18;;;;;;;3.65;2.13;;;;;;;-149.70;100.00;75987.28;4970041;28;20380;-65
2023/08/31 02:41:44;;;;;;;3.33;2.08;;;;;;;-149.70;100.00;75993.38;4971379;28;20042;-65
2023/08/31 02:44:11;;;;;;;4.35;1.98;;;;;;;-149.70;100.00;76001.50;4974775;28;20125;-66
2023/08/31 02:46:39;;;;;;;4.72;2.20;;;;;;;-149.70;100.00;76011.69;4973768;28;20101;-65
2023/08/31 02:49:06;;;;;;;4.00;2.60;;;;;;;-149.70;100.00;76017.78;4973581;28;20047;-65
2023/08/31 02:51:32;;;;;;;5.20;2.03;;;;;;;-149.70;100.00;76007.63;4972650;28;20582;-65
2023/08/31 02:53:59;;;;;;;3.03;2.13;;;;;;;-149.70;100.00;76007.63;4974787;28;20051;-64
2023/08/31 02:56:25;;;;;;;2.55;1.90;;;;;;;-149.70;100.00;76025.91;4974573;28;20126;-65
2023/08/31 02:58:52;;;;;;;4.00;1.98;;;;;;;-149.70;100.00;76029.97;4974033;28;20122;-65
2023/08/31 03:01:18;;;;;;;3.72;1.98;;;;;;;-149.70;100.00;76032.00;4973147;28;20105;-65
2023/08/31 03:03:46;;;;;;;3.15;2.05;;;;;;;-149.70;100.00;76032.00;4974691;28;20463;-65
2023/08/31 03:06:13;;;;;;;3.22;1.90;;;;;;;-149.70;100.00;76032.00;4973390;28;20420;-65
2023/08/31 03:08:40;;;;;;;2.92;2.20;;;;;;;-149.70;100.00;76032.00;4974669;28;20054;-66
2023/08/31 03:11:06;;;;;;;3.50;1.73;;;;;;;-149.70;100.00;76034.03;4974320;28;20050;-65
2023/08/31 03:13:35;;;;;;;3.67;2.45;;;;;;;-149.70;100.00;76038.09;4973810;28;20074;-65
2023/08/31 03:16:02;;;;;;;3.67;2.40;;;;;;;-149.70;100.00;76036.06;4973982;28;20042;-65
2023/08/31 03:18:29;;;;;;;4.30;2.15;;;;;;;-149.70;100.00;76034.03;4972768;28;20058;-64
2023/08/31 03:20:56;;;;;;;2.88;2.00;;;;;;;-149.70;100.00;76044.22;4974977;28;20046;-65
2023/08/31 03:23:22;;;;;;;4.32;2.45;;;;;;;-149.70;100.00;76044.22;4973451;28;20043;-64
2023/08/31 03:25:50;;;;;;;9.60;2.67;;;;;;;-149.70;100.00;76036.06;4973781;28;20106;-64
2023/08/31 03:28:17;;;;;;;2.53;2.30;;;;;;;-149.70;100.00;76032.00;4973020;28;20424;-64
2023/08/31 03:30:46;;;;;;;13.30;2.25;;;;;;;-149.70;100.00;76038.09;4973634;28;20077;-64
2023/08/31 03:33:13;;;;;;;2.88;2.05;;;;;;;-149.70;100.00;76054.38;4973606;28;20045;-64
2023/08/31 03:35:40;;;;;;;3.40;2.20;;;;;;;-149.70;100.00;76042.19;4972995;28;20498;-64
2023/08/31 03:38:06;;;;;;;3.03;2.22;;;;;;;-149.70;100.00;76052.34;4972972;28;20133;-63
2023/08/31 03:40:33;;;;;;;4.20;2.67;;;;;;;-149.70;100.00;76040.13;4955419;28;20487;-64
2023/08/31 03:42:59;;;;;;;3.60;2.28;;;;;;;-149.70;100.00;76052.34;4973809;28;20105;-64
2023/08/31 03:45:26;;;;;;;3.25;2.33;;;;;;;-149.70;100.00;76040.13;4973433;28;20046;-65
2023/08/31 03:47:53;;;;;;;5.50;3.08;;;;;;;-149.70;100.00;76046.25;4973067;28;20582;-64
2023/08/31 03:50:20;;;;;;;5.95;3.30;;;;;;;-149.70;100.00;76050.31;4972762;28;20047;-65
2023/08/31 03:52:46;;;;;;;4.05;3.10;;;;;;;-149.70;100.00;76054.38;4972704;28;20796;-65
2023/08/31 03:55:14;;;;;;;5.50;3.47;;;;;;;-149.70;100.00;76062.50;4972769;28;20094;-64
2023/08/31 03:57:40;;;;;;;5.35;2.83;;;;;;;-149.70;100.00;76056.41;4972404;28;20051;-65
2023/08/31 04:00:08;;;;;;;4.90;3.05;;;;;;;-149.70;100.00;76056.41;4972447;28;20066;-64
2023/08/31 04:02:35;;;;;;;5.13;3.08;;;;;;;-149.70;100.00;76078.78;4972984;28;20539;-65
2023/08/31 04:05:05;;;;;;;5.07;3.47;;;;;;;-149.70;100.00;76080.81;4972490;28;20129;-65
2023/08/31 04:07:35;;;;;;;6.53;3.83;;;;;;;-149.70;100.00;76080.81;4972090;28;20484;-65
2023/08/31 04:10:03;;;;;;;5.72;3.45;;;;;;;-149.70;100.00;76076.75;4972559;28;20047;-65
2023/08/31 04:12:30;;;;;;;7.40;3.60;;;;;;;-149.70;100.00;76072.66;4972870;28;20050;-66
2023/08/31 04:14:57;;;;;;;6.07;3.50;;;;;;;-149.70;100.00;76084.88;4972728;28;20051;-65
2023/08/31 04:17:24;;;;;;;6.88;3.80;;;;;;;-149.70;100.00;76084.88;4973143;28;20129;-66
2023/08/31 04:19:51;;;;;;;10.70;4.20;;;;;;;-149.70;100.00;76095.03;4972035;28;20483;-66
2023/08/31 04:22:18;;;;;;;8.05;3.92;;;;;;;-149.70;100.00;76086.91;4971386;28;20054;-65
2023/08/31 04:24:44;;;;;;;4.82;3.78;;;;;;;-149.70;100.00;76097.06;4971691;28;20051;-66
2023/08/31 04:27:11;;;;;;;7.72;4.38;;;;;;;-149.70;100.00;76093.00;4971480;28;20102;-64
2023/08/31 04:29:37;;;;;;;10.38;4.85;;;;;;;-149.70;100.00;76099.09;4972197;28;20058;-64
2023/08/31 04:32:05;;;;;;;6.78;4.80;;;;;;;-149.70;100.00;76095.03;4972153;28;20054;-64
2023/08/31 04:34:32;;;;;;;7.13;4.47;;;;;;;-149.70;100.00;76093.00;4971881;28;20062;-64
2023/08/31 04:36:58;;;;;;;7.55;4.65;;;;;;;-149.70;100.00;76097.06;4971360;28;20043;-64
2023/08/31 04:39:26;;;;;;;5.57;4.25;;;;;;;-149.70;100.00;76099.09;4972422;28;20043;-65
2023/08/31 04:41:53;;;;;;;6.43;4.85;;;;;;;-149.70;100.00;76099.09;4972580;28;20137;-64
2023/08/31 04:44:19;;;;;;;8.25;5.57;;;;;;;-149.70;100.00;76111.31;4955078;28;20062;-64
2023/08/31 04:46:46;;;;;;;7.43;5.07;;;;;;;-149.70;100.00;76105.19;4972091;28;20051;-64
2023/08/31 04:49:12;;;;;;;6.57;5.05;;;;;;;-149.70;100.00;76105.19;4971728;28;20051;-64
2023/08/31 04:51:41;;;;;;;9.52;5.40;;;;;;;-149.70;100.00;76109.28;4971872;28;20503;-64
2023/08/31 04:54:08;;;;;;;8.68;6.10;;;;;;;-149.70;100.00;76097.06;4972552;28;20046;-64
2023/08/31 04:56:37;;;;;;;13.00;7.38;;;;;;;-149.70;100.00;76105.19;4972499;28;20418;-64
2023/08/31 04:59:03;;;;;;;11.60;8.15;;;;;;;-149.70;100.00;76105.19;4972691;28;20074;-64
2023/08/31 05:01:30;;;;;;;13.45;9.70;;;;;;;-149.70;100.00;76099.09;4972161;28;20054;-64
2023/08/31 05:03:57;;;;;;;10.80;6.88;;;;;;;-149.70;100.00;76084.88;4971553;28;20046;-64
2023/08/31 05:06:24;;;;;;;10.55;6.90;;;;;;;-149.70;100.00;76101.13;4972490;28;20561;-65
2023/08/31 05:08:51;;;;;;;8.50;6.07;;;;;;;-149.70;100.00;76095.03;4971900;28;20446;-65
2023/08/31 05:11:17;;;;;;;13.00;6.13;;;;;;;-149.70;100.00;76093.00;4971625;28;20085;-65
2023/08/31 05:13:44;;;;;;;11.13;6.68;;;;;;;-149.70;100.00;76090.97;4971559;28;20054;-66
2023/08/31 05:16:10;;;;;;;9.23;5.72;;;;;;;-149.70;100.00;76099.09;4971620;28;20050;-66
2023/08/31 05:18:38;;;;;;;10.73;6.88;;;;;;;-149.70;100.00;76093.00;4971619;28;20403;-65
2023/08/31 05:21:07;;;;;;;9.80;5.88;;;;;;;-149.70;100.00;76090.97;4972244;28;20050;-65
2023/08/31 05:23:33;;;;;;;7.20;6.10;;;;;;;-149.70;100.00;76088.94;4971342;28;20053;-66
2023/08/31 05:26:01;;;;;;;15.63;6.93;;;;;;;-149.70;100.00;76086.91;4971429;28;20138;-65
2023/08/31 05:28:28;;;;;;;9.82;6.57;;;;;;;-149.70;100.00;76080.81;4971611;28;20054;-65
2023/08/31 05:30:57;;;;;;;8.90;6.43;;;;;;;-149.70;100.00;76086.91;4972795;28;20049;-65
2023/08/31 05:33:28;;;;;;;12.73;7.32;;;;;;;-149.70;100.00;76082.84;4972149;28;20043;-66
2023/08/31 05:35:55;;;;;;;10.68;7.20;;;;;;;-149.70;100.00;76080.81;4972556;28;20042;-66
2023/08/31 05:38:23;;;;;;;12.60;7.10;;;;;;;-149.70;100.00;76088.94;4972100;28;20059;-65
2023/08/31 05:40:50;;;;;;;13.57;7.38;;;;;;;-149.70;100.00;76105.19;4972050;28;20047;-65
2023/08/31 05:43:16;;;;;;;10.30;7.25;;;;;;;-149.70;100.00;76103.16;4972012;28;20077;-64
2023/08/31 05:45:43;;;;;;;22.67;8.35;;;;;;;-149.70;100.00;76097.06;4971756;28;20050;-65
2023/08/31 05:48:09;;;;;;;8.85;7.18;;;;;;;-149.70;100.00;76097.06;4971680;28;20491;-65
2023/08/31 05:50:39;;;;;;;11.73;7.20;;;;;;;-149.70;100.00;76099.09;4971446;28;20050;-65
2023/08/31 05:53:07;;;;;;;14.88;7.90;;;;;;;-149.70;100.00;76101.13;4971711;28;20137;-65
2023/08/31 05:55:35;;;;;;;17.10;7.28;;;;;;;-149.70;100.00;76105.19;4971478;28;20085;-65
2023/08/31 05:58:02;;;;;;;12.85;8.18;;;;;;;-149.70;100.00;76101.13;4971299;28;20097;-65
2023/08/31 06:00:29;;;;;;;12.73;7.75;;;;;;;-149.70;100.00;76088.94;4971509;28;20050;-65
2023/08/31 06:02:55;;;;;;;19.45;7.35;;;;;;;-149.70;100.00;76074.69;4954746;28;20459;-65
2023/08/31 06:05:22;;;;;;;15.90;7.22;;;;;;;-149.70;100.00;76076.75;4954563;28;20051;-65
2023/08/31 06:07:49;;;;;;;8.95;6.50;;;;;;;-149.70;100.00;76060.47;4971936;28;20047;-65
2023/08/31 06:10:15;;;;;;;15.88;6.70;;;;;;;-149.70;100.00;76044.22;4971563;28;20546;-64
2023/08/31 06:12:42;;;;;;;12.30;7.25;;;;;;;-149.70;100.00;76044.22;4971783;28;20090;-64
2023/08/31 06:15:09;;;;;;;12.88;6.55;;;;;;;-149.70;100.00;76040.13;4972144;28;20051;-64
2023/08/31 06:17:36;;;;;;;11.50;6.40;;;;;;;-149.70;100.00;76036.06;4974522;28;20150;-64
2023/08/31 06:20:05;;;;;;;10.85;6.85;;;;;;;-149.70;100.00;76046.25;4975540;28;20122;-65
2023/08/31 06:22:32;;;;;;;9.88;6.47;;;;;;;-149.70;100.00;76040.13;4975845;28;20074;-64
2023/08/31 06:24:58;;;;;;;9.43;6.20;;;;;;;-149.70;100.00;76064.53;4975832;28;20054;-64
2023/08/31 06:27:25;;;;;;;13.02;6.82;;;;;;;-149.70;100.00;76078.78;4976065;28;20495;-65
2023/08/31 06:29:52;;;;;;;11.98;6.22;;;;;;;-149.70;100.00;76070.63;4975820;28;20047;-65
2023/08/31 06:32:19;;;;;;;9.38;6.45;;;;;;;-149.70;100.00;76060.47;4975667;28;20078;-64
2023/08/31 06:34:45;;;;;;;11.73;7.03;;;;;;;-149.70;100.00;76068.59;4976156;28;20109;-65
2023/08/31 06:37:12;;;;;;;12.07;6.70;;;;;;;-149.70;100.00;76044.22;4976269;28;20093;-69
2023/08/31 06:39:40;;;;;;;10.38;6.55;;;;;;;-149.70;100.00;76060.47;4949570;28;20059;-70
2023/08/31 06:42:07;;;;;;;13.20;7.05;;;;;;;-149.70;100.00;76038.09;4975058;28;20055;-70
2023/08/31 06:44:33;;;;;;;18.75;7.25;;;;;;;-149.70;100.00;76054.38;4975738;28;20051;-70
2023/08/31 06:47:00;;;;;;;12.82;6.53;;;;;;;-149.70;100.00;76064.53;4974560;28;20110;-69
2023/08/31 06:49:29;;;;;;;12.75;7.07;;;;;;;-149.70;100.00;76074.69;4975513;28;20495;-70
2023/08/31 06:51:56;;;;;;;18.52;6.60;;;;;;;-149.70;100.00;76072.66;4975342;28;20085;-70
2023/08/31 06:54:23;;;;;;;10.40;6.22;;;;;;;-149.70;100.00;76068.59;4975502;28;20047;-70
2023/08/31 06:56:53;;;;;;;9.27;5.45;;;;;;;-149.70;100.00;76080.81;4975236;28;20042;-70
2023/08/31 06:59:20;;;;;;;14.13;6.50;;;;;;;-149.70;100.00;76076.75;4975064;28;20093;-69
2023/08/31 07:01:46;;;;;;;13.18;6.47;;;;;;;-149.70;100.00;76086.91;4975078;28;20105;-69
2023/08/31 07:04:13;;;;;;;12.32;5.78;;;;;;;-149.70;100.00;76080.81;4975236;28;20050;-71
2023/08/31 07:06:40;;;;;;;14.10;6.63;;;;;;;-149.70;100.00;76082.84;4974742;28;20503;-69
2023/08/31 07:09:08;;;;;;;11.15;5.35;;;;;;;-149.70;100.00;76101.13;4974908;28;20113;-69
2023/08/31 07:11:34;;;;;;;17.10;5.38;;;;;;;-149.70;100.00;76084.88;4974549;28;20547;-69
2023/08/31 07:14:02;;;;;;;16.42;6.70;;;;;;;-149.70;100.00;76068.59;4974807;28;20102;-68
2023/08/31 07:16:28;;;;;;;21.88;6.18;;;;;;;-149.70;100.00;76064.53;4974565;28;20054;-69
2023/08/31 07:18:55;;;;;;;12.73;6.30;;;;;;;-149.70;100.00;76052.34;4975527;28;20055;-69
2023/08/31 07:21:22;;;;;;;14.35;6.63;;;;;;;-149.70;100.00;76048.28;4974481;28;20066;-69
2023/08/31 07:23:49;;;;;;;11.10;5.40;;;;;;;-149.70;100.00;76060.47;4974535;28;20046;-69
2023/08/31 07:26:16;;;;;;;13.10;6.03;;;;;;;-149.70;100.00;76056.41;4973918;28;20038;-69
2023/08/31 07:28:43;;;;;;;13.07;4.85;;;;;;;-149.70;100.00;76064.53;4974192;28;20085;-69
2023/08/31 07:31:12;;;;;;;13.88;4.78;;;;;;;-149.70;100.00;76050.31;4973602;28;20046;-70
2023/08/31 07:33:38;;;;;;;13.23;4.85;;;;;;;-149.70;100.00;76048.28;4974489;28;20066;-69
2023/08/31 07:36:06;;;;;;;11.68;4.40;;;;;;;-149.70;100.00;76036.06;4974468;28;20074;-69
2023/08/31 07:38:34;;;;;;;18.33;4.65;;;;;;;-149.70;100.00;76009.66;4974267;28;20133;-69
2023/08/31 07:41:04;;;;;;;12.68;4.32;;;;;;;-149.70;100.00;76003.53;4974217;28;20051;-69
2023/08/31 07:43:31;;;;;;;10.88;4.90;;;;;;;-149.70;100.00;76021.84;4973514;28;20050;-69
2023/08/31 07:45:57;;;;;;;14.90;4.60;;;;;;;-149.70;100.00;76003.53;4974100;28;20092;-69
2023/08/31 07:48:36;;;;;;;15.25;4.97;;;;;;;-149.70;100.00;75983.22;4973976;28;20489;-69
2023/08/31 07:51:04;;;;;;;11.00;4.32;;;;;;;-117.23;100.00;80373.00;4974053;28;20038;-69
2023/08/31 07:53:30;;;;;;;8.90;4.03;;;;;;;-15.29;100.00;95669.31;4974091;28;20423;-69
2023/08/31 07:55:57;;;;;;;10.32;4.20;;;;;;;-111.10;100.00;81254.56;4974254;28;20133;-67
2023/08/31 07:58:26;;;;;;;14.48;4.80;;;;;;;-43.68;100.00;91181.66;4974812;28;20051;-69
2023/08/31 08:00:54;;;;;;;11.70;4.43;;;;;;;11.83;100.00;99882.09;4974276;28;20411;-69
2023/08/31 08:03:25;;;;;;;18.98;10.63;;;;;;;14.02;100.00;100095.94;4973825;28;20047;-70
2023/08/31 08:05:52;;;;;;;12.82;3.88;;;;;;;15.32;100.00;100165.22;4973735;28;20522;-69
2023/08/31 08:08:19;;;;;;;6.82;2.80;;;;;;;16.61;100.00;100186.47;4974568;28;20790;-69
2023/08/31 08:10:46;;;;;;;7.32;2.72;;;;;;;16.33;100.00;100180.44;4974192;28;20051;-70
2023/08/31 08:13:13;;;;;;;12.75;3.53;;;;;;;15.83;100.00;100178.22;4973117;28;20051;-70
2023/08/31 08:15:42;;;;;;;6.22;2.53;;;;;;;15.94;100.00;100174.88;4974278;28;20057;-69
2023/08/31 08:18:08;;;;;;;8.90;2.83;;;;;;;16.63;100.00;100189.78;4956858;28;20521;-70
2023/08/31 08:20:41;;;;;;;12.98;2.80;;;;;;;16.24;100.00;100187.97;4973788;28;20113;-70
2023/08/31 08:23:08;;;;;;;14.90;3.03;;;;;;;16.48;100.00;100185.63;4974136;28;20491;-69
2023/08/31 08:25:35;;;;;;;6.90;2.75;;;;;;;17.18;100.00;100178.50;4973248;28;20050;-69
2023/08/31 08:28:03;;;;;;;10.45;2.22;;;;;;;17.73;100.00;100188.81;4974172;28;20097;-69
2023/08/31 08:30:29;;;;;;;6.22;2.47;;;;;;;18.73;100.00;100186.00;4956131;28;20427;-69
2023/08/31 08:33:20;;;;;;;8.00;2.60;;;;;;;18.87;97.83;100187.50;4973549;28;20045;-70
2023/08/31 08:36:07;;;;;;;9.82;2.25;;;;;;;18.76;88.76;100180.94;4974458;28;20083;-69
2023/08/31 08:38:41;;;;;;;8.93;2.20;;;;;;;18.66;94.87;100183.38;4971811;28;20126;-69
2023/08/31 08:41:11;;;;;;;5.80;1.88;;;;;;;18.53;95.46;100184.34;4974245;28;20054;-69
2023/08/31 08:43:43;;;;;;;13.85;2.05;;;;;;;18.03;96.27;100186.25;4971721;28;20065;-69
2023/08/31 08:46:19;;;;;;;18.55;2.58;;;;;;;17.77;99.56;100187.31;4974760;28;20102;-69
2023/08/31 08:48:47;;;;;;;6.32;1.85;;;;;;;17.32;100.00;100190.09;4975068;28;20057;-69
2023/08/31 08:51:14;;;;;;;7.05;1.83;;;;;;;16.67;100.00;100182.06;4956427;28;20043;-69
2023/08/31 08:53:43;;;;;;;6.10;2.35;;;;;;;16.49;100.00;100180.00;4972729;28;20105;-69
2023/08/31 08:56:20;;;;;;;;;;;;;;;;;;;;;
2023/08/31 08:58:47;;;;;;;6.28;1.85;;;;;;;15.59;100.00;100174.22;4970781;28;20053;-69
2023/08/31 09:01:17;;;;;;;9.85;2.28;;;;;;;15.02;100.00;100172.88;4972981;28;20043;-69
2023/08/31 09:03:47;;;;;;;4.95;1.98;;;;;;;15.38;100.00;100179.81;4973185;28;20051;-69
2023/08/31 09:06:38;;;;;;;9.27;2.00;;;;;;;16.52;100.00;100178.78;4971826;28;20072;-69
2023/08/31 09:09:29;;;;;;;7.50;1.52;;;;;;;17.22;100.00;100179.72;4956143;28;20051;-69
2023/08/31 09:12:06;;;;;;;6.95;1.52;;;;;;;17.19;100.00;100179.34;4963117;28;20118;-69
2023/08/31 09:14:33;;;;;;;14.18;5.43;;;;;;;17.49;100.00;100188.56;4972584;28;20046;-69
2023/08/31 09:16:59;;;;;;;11.43;2.63;;;;;;;16.98;100.00;100185.91;4972384;28;20051;-69
2023/08/31 09:19:27;;;;;;;8.07;2.08;;;;;;;16.63;100.00;100184.38;4973337;28;20054;-69
2023/08/31 09:21:56;;;;;;;7.25;2.08;;;;;;;16.17;100.00;100189.84;4972229;28;20077;-69
2023/08/31 09:24:23;;;;;;;6.10;2.38;;;;;;;15.52;100.00;100191.47;4973595;28;20050;-71
2023/08/31 09:26:56;;;;;;;5.35;1.73;;;;;;;14.91;100.00;100184.22;4956063;28;20047;-69
2023/08/31 09:29:23;;;;;;;8.98;2.33;;;;;;;14.87;100.00;100180.28;4985339;28;20062;-69
2023/08/31 09:31:50;;;;;;;3.90;1.80;;;;;;;16.80;100.00;100187.44;4985212;28;20053;-69
2023/08/31 09:34:18;;;;;;;6.40;1.75;;;;;;;18.52;100.00;100193.53;4984263;28;20070;-69
2023/08/31 09:36:45;;;;;;;3.35;1.48;;;;;;;20.40;70.83;100180.59;4985245;28;20057;-66
2023/08/31 09:39:16;;;;;;;;;;;;;;;21.58;60.41;100183.78;4976399;28;20483;-68
2023/08/31 09:41:53;;;;;;;5.82;1.55;;;;;;;22.66;54.66;100178.09;4984270;28;19922;-68
2023/08/31 09:44:29;;;;;;;10.55;1.95;;;;;;;23.15;51.76;100175.41;4983265;28;20082;-68
2023/08/31 09:46:57;;;;;;;6.65;1.65;;;;;;;23.71;49.47;100173.22;4985275;28;20047;-68
2023/08/31 09:49:28;;;;;;;5.82;1.58;;;;;;;24.66;46.63;100167.84;4985192;28;20130;-69
2023/08/31 09:52:02;;;;;;;2.75;1.15;;;;;;;24.53;44.13;100168.34;4984569;28;20051;-69
2023/08/31 09:54:29;;;;;;;5.15;1.42;;;;;;;22.25;48.77;100173.94;4984750;28;20074;-69
2023/08/31 09:57:02;;;;;;;5.93;1.35;;;;;;;20.49;51.99;100174.75;4985032;28;20050;-69
2023/08/31 09:59:34;;;;;;;3.00;1.50;;;;;;;19.53;55.46;100171.34;4985256;28;20057;-69
2023/08/31 10:02:02;;;;;;;7.43;1.50;;;;;;;21.91;50.68;100170.41;4972559;28;20082;-69
2023/08/31 10:04:34;;;;;;;9.10;1.67;;;;;;;23.52;47.18;100174.69;4981355;28;20057;-66
2023/08/31 10:07:04;;;;;;;4.90;1.30;;;;;;;24.01;42.51;100176.50;4985231;28;20126;-68
2023/08/31 10:09:30;;;;;;;6.93;1.30;;;;;;;22.21;45.06;100179.06;4982141;28;20118;-68
2023/08/31 10:11:58;;;;;;;8.27;1.55;;;;;;;23.47;44.53;100175.47;4983642;28;20047;-68
2023/08/31 10:14:25;;;;;;;7.57;1.33;;;;;;;24.51;41.79;100183.41;4982252;28;20042;-68
2023/08/31 10:16:55;;;;;;;5.95;1.70;;;;;;;22.81;44.99;100185.66;4977753;28;20491;-68
2023/08/31 10:19:22;;;;;;;12.88;2.38;;;;;;;21.36;46.91;100180.09;4978127;28;20042;-69
2023/08/31 10:21:49;;;;;;;7.13;1.52;;;;;;;19.87;51.19;100177.97;4978295;28;20480;-68
2023/08/31 10:24:19;;;;;;;7.82;1.80;;;;;;;18.55;55.02;100187.66;4978801;28;20074;-68
2023/08/31 10:26:49;;;;;;;4.57;1.73;;;;;;;18.04;58.29;100196.91;4978336;28;20047;-68
2023/08/31 10:29:40;;;;;;;7.55;1.70;;;;;;;17.03;67.87;100205.91;4978622;28;20058;-68
2023/08/31 10:32:07;;;;;;;10.35;2.55;;;;;;;15.80;100.00;100218.38;4958452;28;20039;-67
2023/08/31 10:34:37;;;;;;;12.45;2.35;;;;;;;15.05;100.00;100210.28;4971347;28;20264;-68
2023/08/31 10:37:22;;;;;;;5.28;1.80;;;;;;;13.72;100.00;100190.47;4973094;28;20077;-67
2023/08/31 10:39:48;;;;;;;3.72;1.67;;;;;;;12.76;100.00;100146.78;4972362;28;20059;-68
2023/08/31 10:42:15;;;;;;;11.35;2.20;;;;;;;12.47;100.00;100111.81;4971102;28;20054;-68
2023/08/31 10:44:44;;;;;;;9.45;1.92;;;;;;;12.25;100.00;100066.03;4971691;28;20074;-68
2023/08/31 10:47:12;;;;;;;8.00;2.20;;;;;;;11.93;100.00;100011.63;4971897;28;20035;-68
2023/08/31 10:49:50;;;;;;;7.10;2.05;;;;;;;11.86;100.00;100029.53;4971041;28;20093;-68
2023/08/31 10:52:19;;;;;;;9.70;2.33;;;;;;;11.60;100.00;99997.69;4971493;28;20491;-68
2023/08/31 10:54:54;;;;;;;;;;;;;;;11.37;100.00;99981.66;4971096;28;20384;-68
2023/08/31 10:57:29;;;;;;;7.57;2.20;;;;;;;11.50;100.00;99969.44;4971052;28;20297;-68
2023/08/31 10:59:56;;;;;;;8.20;2.20;;;;;;;11.12;100.00;99888.94;4971690;28;20049;-68
2023/08/31 11:02:36;;;;;;;7.38;2.08;;;;;;;11.43;100.00;99937.94;4960244;28;20047;-68
2023/08/31 11:05:20;;;;;;;8.45;2.00;;;;;;;11.78;100.00;99973.16;4958187;28;20122;-68
2023/08/31 11:07:52;;;;;;;5.65;1.85;;;;;;;12.81;100.00;100017.03;4951737;28;20070;-67
2023/08/31 11:10:26;;;;;;;6.20;2.00;;;;;;;14.17;100.00;100123.63;4954415;28;20469;-66
2023/08/31 11:13:02;;;;;;;5.55;1.98;;;;;;;15.26;100.00;100163.38;4954813;28;20083;-66
2023/08/31 11:15:30;;;;;;;4.97;1.90;;;;;;;16.01;100.00;100169.47;4954700;28;20058;-66
2023/08/31 11:17:56;;;;;;;4.57;2.40;;;;;;;16.52;100.00;100187.72;4955805;28;20126;-66
2023/08/31 11:20:31;;;;;;;16.00;8.73;;;;;;;17.09;100.00;100180.66;4928423;28;20043;-66
2023/08/31 11:23:15;;;;;;;7.43;2.80;;;;;;;17.46;100.00;100186.28;4954632;28;20047;-67
2023/08/31 11:26:06;;;;;;;6.43;1.58;;;;;;;17.10;100.00;100182.31;4954687;28;20102;-66